createdAt,value
2019-01-26T00:00:16.534Z,47.60
2019-01-26T00:02:45.001Z,47.90
2019-01-26T00:05:13.493Z,47.60
2019-01-26T00:07:41.927Z,48.20
2019-01-26T00:10:10.608Z,48.20
2019-01-26T00:12:39.026Z,47.90
2019-01-26T00:15:11.398Z,48.10
2019-01-26T00:17:39.849Z,47.60
2019-01-26T00:20:09.556Z,47.90
2019-01-26T00:22:38.199Z,47.60
2019-01-26T00:25:06.733Z,48.00
2019-01-26T00:27:35.171Z,47.40
2019-01-26T00:30:06.723Z,47.80
2019-01-26T00:32:35.223Z,48.10
2019-01-26T00:35:04.602Z,47.60
2019-01-26T00:37:33.036Z,47.90
2019-01-26T00:40:01.487Z,47.90
2019-01-26T00:42:30.047Z,47.50
2019-01-26T00:44:58.558Z,47.90
2019-01-26T00:47:27.007Z,48.20
2019-01-26T00:49:55.457Z,48.60
2019-01-26T00:52:23.888Z,48.80
2019-01-26T00:54:52.412Z,50.20
2019-01-26T00:57:20.822Z,51.70
2019-01-26T00:59:49.289Z,52.30
2019-01-26T01:02:17.700Z,53.50
2019-01-26T01:04:46.123Z,55.10
2019-01-26T01:07:14.637Z,56.10
2019-01-26T01:09:43.100Z,58.10
2019-01-26T01:12:11.702Z,60.00
2019-01-26T01:14:40.127Z,60.60
2019-01-26T01:17:08.586Z,61.30
2019-01-26T01:19:36.997Z,62.10
2019-01-26T01:22:05.506Z,62.90
2019-01-26T01:24:33.935Z,63.70
2019-01-26T01:27:02.386Z,64.50
2019-01-26T01:29:32.354Z,65.20
2019-01-26T01:32:00.809Z,66.00
2019-01-26T01:34:29.244Z,66.60
2019-01-26T01:36:57.758Z,67.40
2019-01-26T01:39:26.239Z,68.20
2019-01-26T01:41:54.710Z,69.30
2019-01-26T01:44:23.142Z,69.40
2019-01-26T01:46:51.579Z,69.60
2019-01-26T01:49:20.002Z,69.80
2019-01-26T01:51:48.448Z,69.80
2019-01-26T01:54:16.950Z,69.70
2019-01-26T01:56:45.411Z,69.70
2019-01-26T01:59:13.835Z,70.00
2019-01-26T02:01:42.272Z,70.10
2019-01-26T02:04:10.695Z,70.20
2019-01-26T02:06:39.133Z,70.00
2019-01-26T02:09:08.326Z,69.70
2019-01-26T02:11:36.747Z,70.00
2019-01-26T02:14:06.075Z,70.70
2019-01-26T02:16:34.637Z,70.80
2019-01-26T02:19:03.085Z,70.40
2019-01-26T02:21:31.709Z,70.30
2019-01-26T02:24:00.260Z,70.10
2019-01-26T02:26:28.739Z,69.80
2019-01-26T02:28:57.195Z,69.60
2019-01-26T02:31:25.761Z,69.80
2019-01-26T02:33:54.202Z,70.30
2019-01-26T02:36:22.626Z,70.70
2019-01-26T02:38:51.069Z,71.20
2019-01-26T02:41:19.495Z,71.90
2019-01-26T02:43:48.017Z,72.40
2019-01-26T02:46:16.464Z,72.80
2019-01-26T02:48:44.908Z,73.50
2019-01-26T02:51:13.327Z,73.60
2019-01-26T02:53:41.815Z,74.00
2019-01-26T02:56:10.270Z,74.00
2019-01-26T02:58:59.616Z,74.30
2019-01-26T03:01:28.062Z,74.30
2019-01-26T03:03:56.679Z,74.20
2019-01-26T03:06:25.174Z,74.30
2019-01-26T03:08:53.672Z,74.80
2019-01-26T03:11:22.194Z,74.90
2019-01-26T03:13:50.621Z,74.90
2019-01-26T03:16:19.103Z,75.30
2019-01-26T03:18:47.525Z,75.40
2019-01-26T03:21:15.972Z,75.40
2019-01-26T03:23:44.582Z,75.30
2019-01-26T03:26:13.025Z,75.40
2019-01-26T03:28:41.480Z,75.70
2019-01-26T03:31:10.001Z,76.10
2019-01-26T03:33:38.423Z,76.60
2019-01-26T03:36:06.878Z,77.20
2019-01-26T03:38:35.317Z,77.60
2019-01-26T03:41:04.032Z,78.10
2019-01-26T03:43:32.457Z,78.70
2019-01-26T03:46:00.884Z,79.10
2019-01-26T03:48:29.476Z,79.60
2019-01-26T03:50:57.914Z,80.00
2019-01-26T03:53:26.368Z,80.40
2019-01-26T03:55:54.803Z,80.90
2019-01-26T03:58:23.379Z,81.60
2019-01-26T04:00:51.883Z,81.80
2019-01-26T04:03:20.406Z,81.90
2019-01-26T04:05:48.839Z,82.10
2019-01-26T04:08:17.298Z,82.20
2019-01-26T04:10:45.744Z,82.30
2019-01-26T04:13:14.190Z,82.40
2019-01-26T04:15:42.789Z,82.80
2019-01-26T04:18:11.243Z,83.20
2019-01-26T04:20:39.668Z,83.40
2019-01-26T04:23:08.093Z,83.50
2019-01-26T04:25:36.549Z,83.80
2019-01-26T06:39:16.507Z,85.30
2019-01-26T06:41:44.921Z,85.20
2019-01-26T06:44:13.386Z,85.10
2019-01-26T06:46:41.817Z,85.20
2019-01-26T06:49:10.463Z,85.20
2019-01-26T06:51:40.572Z,85.40
2019-01-26T06:54:09.096Z,85.60
2019-01-26T06:56:37.514Z,85.50
2019-01-26T06:59:06.044Z,85.50
2019-01-26T07:01:34.467Z,85.50
2019-01-26T07:04:02.922Z,85.60
2019-01-26T07:06:32.999Z,85.90
2019-01-26T07:09:01.446Z,86.20
2019-01-26T07:11:29.870Z,86.40
2019-01-26T07:13:58.318Z,86.90
2019-01-26T07:16:26.813Z,87.10
2019-01-26T07:18:55.270Z,87.40
2019-01-26T07:21:23.696Z,87.70
2019-01-26T07:23:52.143Z,87.90
2019-01-26T07:26:20.562Z,88.10
2019-01-26T07:28:49.082Z,88.30
2019-01-26T07:31:17.659Z,88.20
2019-01-26T07:33:46.101Z,88.00
2019-01-26T07:36:14.528Z,88.00
2019-01-26T07:38:45.273Z,88.10
2019-01-26T07:41:13.353Z,88.20
2019-01-26T07:43:41.783Z,88.10
2019-01-26T07:46:10.223Z,88.10
2019-01-26T07:48:38.650Z,88.20
2019-01-26T07:51:07.163Z,88.20
2019-01-26T07:53:35.662Z,88.10
2019-01-26T07:56:04.455Z,87.90
2019-01-26T07:58:32.875Z,87.70
2019-01-26T08:01:01.317Z,87.90
2019-01-26T08:03:29.799Z,87.80
2019-01-26T08:05:58.255Z,87.80
2019-01-26T08:08:26.688Z,87.70
2019-01-26T08:10:55.128Z,87.20
2019-01-26T08:13:23.655Z,86.80
2019-01-26T08:15:52.159Z,86.50
2019-01-26T08:18:24.245Z,85.60
2019-01-26T08:20:50.761Z,85.30
2019-01-26T08:23:19.189Z,84.50
2019-01-26T08:25:47.636Z,84.10
2019-01-26T08:28:16.070Z,83.20
2019-01-26T08:30:44.509Z,82.60
2019-01-26T08:33:12.922Z,82.20
2019-01-26T08:35:41.507Z,81.50
2019-01-26T08:38:09.998Z,81.40
2019-01-26T08:40:38.413Z,81.40
2019-01-26T08:43:06.932Z,81.00
2019-01-26T08:45:35.338Z,81.00
2019-01-26T08:48:04.514Z,80.90
2019-01-26T08:50:32.930Z,81.00
2019-01-26T08:53:01.382Z,81.40
2019-01-26T08:55:29.804Z,81.40
2019-01-26T08:57:58.242Z,81.50
2019-01-26T09:00:28.103Z,81.50
2019-01-26T09:02:58.325Z,81.00
2019-01-26T09:05:40.379Z,81.20
2019-01-26T09:08:08.955Z,81.30
2019-01-26T09:10:37.370Z,81.90
2019-01-26T09:13:05.830Z,82.30
2019-01-26T09:15:34.390Z,82.70
2019-01-26T09:18:02.917Z,82.90
2019-01-26T09:20:31.326Z,83.10
2019-01-26T09:22:59.788Z,82.80
2019-01-26T09:25:28.194Z,83.20
2019-01-26T09:27:56.902Z,82.80
2019-01-26T09:30:25.462Z,82.20
2019-01-26T09:32:53.863Z,81.80
2019-01-26T09:35:22.367Z,81.30
2019-01-26T09:37:52.346Z,80.50
2019-01-26T09:40:22.054Z,79.60
2019-01-26T09:42:50.702Z,79.10
2019-01-26T09:45:20.201Z,77.70
2019-01-26T09:47:48.850Z,78.20
2019-01-26T09:50:18.436Z,78.20
2019-01-26T09:52:46.909Z,77.50
2019-01-26T09:55:17.390Z,77.10
2019-01-26T09:57:45.913Z,76.80
2019-01-26T10:00:18.388Z,77.00
2019-01-26T10:02:47.130Z,77.40
2019-01-26T10:05:15.933Z,76.80
2019-01-26T10:07:44.531Z,76.50
2019-01-26T10:10:15.020Z,76.00
2019-01-26T10:12:43.942Z,75.70
2019-01-26T10:15:18.431Z,75.40
2019-01-26T10:17:47.110Z,74.90
2019-01-26T10:20:21.316Z,75.20
2019-01-26T10:22:49.802Z,75.00
2019-01-26T10:25:18.685Z,75.00
2019-01-26T10:27:47.187Z,75.50
2019-01-26T10:30:22.873Z,75.20
2019-01-26T10:32:51.354Z,75.30
2019-01-26T10:35:19.807Z,74.70
2019-01-26T10:37:48.327Z,74.80
2019-01-26T10:40:21.066Z,74.80
2019-01-26T10:42:49.567Z,74.80
2019-01-26T10:45:18.048Z,74.00
2019-01-26T10:47:46.496Z,73.40
2019-01-26T10:50:14.979Z,73.00
2019-01-26T10:52:43.419Z,72.70
2019-01-26T10:55:12.179Z,71.80
2019-01-26T10:57:40.770Z,71.40
2019-01-26T11:00:12.259Z,70.90
2019-01-26T11:02:40.718Z,70.30
2019-01-26T11:05:09.670Z,70.20
2019-01-26T11:07:38.118Z,69.60
2019-01-26T11:10:09.694Z,69.10
2019-01-26T11:12:38.131Z,68.70
2019-01-26T11:15:09.623Z,68.10
2019-01-26T11:17:38.079Z,67.30
2019-01-26T11:20:14.679Z,67.00
2019-01-26T11:22:43.393Z,66.10
2019-01-26T11:25:14.931Z,65.90
2019-01-26T11:27:43.494Z,65.20
2019-01-26T11:30:14.394Z,64.50
2019-01-26T11:32:42.855Z,64.30
2019-01-26T11:35:16.291Z,64.20
2019-01-26T11:37:44.736Z,64.40
2019-01-26T11:40:15.159Z,64.50
2019-01-26T11:42:43.643Z,65.20
2019-01-26T11:45:31.915Z,65.00
2019-01-26T11:48:03.543Z,65.20
2019-01-26T11:50:33.638Z,64.60
2019-01-26T11:53:02.067Z,64.40
2019-01-26T11:55:32.136Z,63.00
2019-01-26T11:58:00.553Z,62.70
2019-01-26T12:00:47.303Z,62.60
2019-01-26T12:03:33.727Z,62.70
2019-01-26T12:06:06.554Z,62.80
2019-01-26T12:08:34.963Z,63.10
2019-01-26T12:11:03.432Z,63.40
2019-01-26T12:13:31.838Z,63.40
2019-01-26T12:16:00.383Z,63.10
2019-01-26T12:18:28.795Z,62.90
2019-01-26T12:20:57.308Z,62.60
2019-01-26T12:23:25.726Z,62.90
2019-01-26T12:25:54.171Z,63.40
2019-01-26T12:28:22.643Z,63.40
2019-01-26T12:30:51.078Z,63.30
2019-01-26T12:33:19.518Z,63.20
2019-01-26T12:35:48.023Z,63.20
2019-01-26T12:38:16.508Z,63.30
2019-01-26T12:40:45.042Z,63.30
2019-01-26T12:43:13.482Z,63.60
2019-01-26T12:45:41.931Z,63.70
2019-01-26T12:48:10.467Z,63.80
2019-01-26T12:50:39.002Z,63.80
2019-01-26T12:53:07.506Z,64.00
2019-01-26T12:55:36.035Z,64.30
2019-01-26T12:58:04.619Z,64.60
2019-01-26T13:00:34.647Z,64.70
2019-01-26T13:03:03.097Z,64.80
2019-01-26T13:05:31.522Z,65.10
2019-01-26T13:07:59.978Z,64.70
2019-01-26T13:10:43.729Z,64.90
2019-01-26T13:13:12.334Z,64.80
2019-01-26T13:15:40.790Z,64.80
2019-01-26T13:18:09.460Z,64.60
2019-01-26T13:20:37.951Z,64.70
2019-01-26T13:23:06.524Z,64.70
2019-01-26T13:25:35.506Z,64.50
2019-01-26T13:28:04.290Z,64.60
2019-01-26T13:30:32.865Z,64.90
2019-01-26T13:33:01.567Z,65.10
2019-01-26T13:35:29.973Z,65.10
2019-01-26T13:37:58.419Z,65.10
2019-01-26T13:40:32.168Z,64.80
2019-01-26T13:43:00.612Z,65.00
2019-01-26T13:45:29.018Z,65.30
2019-01-26T13:47:57.484Z,65.60
2019-01-26T13:50:25.966Z,65.70
2019-01-26T13:52:54.504Z,65.50
2019-01-26T13:55:23.843Z,65.60
2019-01-26T13:57:52.405Z,65.10
2019-01-26T14:00:26.916Z,64.90
2019-01-26T14:02:55.514Z,64.80
2019-01-26T14:05:25.810Z,65.20
2019-01-26T14:07:54.277Z,65.20
2019-01-26T14:10:24.413Z,65.30
2019-01-26T14:12:52.973Z,65.60
2019-01-26T14:15:24.112Z,65.50
2019-01-26T14:17:52.603Z,65.60
2019-01-26T14:20:31.706Z,65.60
2019-01-26T14:23:00.127Z,66.10
2019-01-26T14:25:28.622Z,66.10
2019-01-26T14:27:57.154Z,66.20
2019-01-26T14:30:34.490Z,66.00
2019-01-26T14:33:03.060Z,66.30
2019-01-26T14:35:31.526Z,66.40
2019-01-26T14:37:59.999Z,66.10
2019-01-26T14:40:28.529Z,66.60
2019-01-26T14:42:57.010Z,66.20
2019-01-26T14:45:25.593Z,66.70
2019-01-26T14:47:54.077Z,66.60
2019-01-26T14:50:25.712Z,66.50
2019-01-26T14:52:54.239Z,66.00
2019-01-26T14:55:32.484Z,65.90
2019-01-26T14:58:01.250Z,65.90
2019-01-26T15:00:35.506Z,65.80
2019-01-26T15:03:04.287Z,65.80
2019-01-26T15:05:32.955Z,65.90
2019-01-26T15:08:01.917Z,66.10
2019-01-26T15:10:30.329Z,66.80
2019-01-26T15:12:58.782Z,67.50
2019-01-26T15:15:27.225Z,68.50
2019-01-26T15:17:55.811Z,68.90
2019-01-26T15:20:27.253Z,69.70
2019-01-26T15:22:55.694Z,70.10
2019-01-26T15:25:24.256Z,71.30
2019-01-26T15:27:52.688Z,71.20
2019-01-26T15:30:27.055Z,71.50
2019-01-26T15:32:55.574Z,72.20
2019-01-26T15:35:24.319Z,72.70
2019-01-26T15:37:52.823Z,73.00
2019-01-26T15:40:21.307Z,74.30
2019-01-26T15:42:49.759Z,73.70
2019-01-26T15:45:29.999Z,73.40
2019-01-26T15:47:58.454Z,73.80
2019-01-26T15:50:26.936Z,74.10
2019-01-26T15:52:55.519Z,74.10
2019-01-26T15:55:25.892Z,74.30
2019-01-26T15:57:54.416Z,74.10
2019-01-26T16:00:25.594Z,74.40
2019-01-26T16:02:54.371Z,74.30
2019-01-26T16:05:22.899Z,74.20
2019-01-26T16:07:51.448Z,74.70
2019-01-26T16:10:22.142Z,75.90
2019-01-26T16:12:51.050Z,75.60
2019-01-26T16:15:21.755Z,73.40
2019-01-26T16:17:50.313Z,72.80
2019-01-26T16:20:20.585Z,72.20
2019-01-26T16:22:49.454Z,73.00
2019-01-26T16:25:18.323Z,73.50
2019-01-26T16:27:46.843Z,74.80
2019-01-26T16:30:27.338Z,75.90
2019-01-26T16:32:55.831Z,77.00
2019-01-26T16:35:24.528Z,77.30
2019-01-26T16:37:53.028Z,78.40
2019-01-26T16:40:24.414Z,79.40
2019-01-26T16:42:52.904Z,80.30
2019-01-26T16:45:24.448Z,80.90
2019-01-26T16:47:52.934Z,82.30
2019-01-26T16:50:27.895Z,82.40
2019-01-26T16:52:54.155Z,82.60
2019-01-26T16:55:22.722Z,82.70
2019-01-26T16:57:51.386Z,82.90
2019-01-26T17:00:29.257Z,83.00
2019-01-26T17:02:57.801Z,82.90
2019-01-26T17:05:26.298Z,83.20
2019-01-26T17:07:55.000Z,83.60
2019-01-26T17:10:23.726Z,83.80
2019-01-26T17:12:52.407Z,84.20
2019-01-26T17:15:20.970Z,84.50
2019-01-26T17:17:49.646Z,84.20
2019-01-26T17:20:34.913Z,84.20
2019-01-26T17:22:59.835Z,84.10
2019-01-26T17:25:28.335Z,84.50
2019-01-26T17:27:56.851Z,84.70
2019-01-26T17:30:30.644Z,84.70
2019-01-26T17:32:59.342Z,84.90
2019-01-26T17:35:27.905Z,84.80
2019-01-26T17:37:56.672Z,84.90
2019-01-26T17:40:26.628Z,85.00
2019-01-26T17:42:55.164Z,85.20
2019-01-26T17:45:24.046Z,85.50
2019-01-26T17:47:53.390Z,86.00
2019-01-26T17:50:26.690Z,86.30
2019-01-26T17:52:55.274Z,86.80
2019-01-26T17:55:23.729Z,87.50
2019-01-26T17:57:52.196Z,87.80
2019-01-26T18:00:33.121Z,88.00
2019-01-26T18:03:01.671Z,88.40
2019-01-26T18:05:30.253Z,88.60
2019-01-26T18:07:58.748Z,88.90
2019-01-26T18:10:28.168Z,89.40
2019-01-26T18:12:57.336Z,89.70
2019-01-26T18:15:25.867Z,90.00
2019-01-26T18:17:54.441Z,90.10
2019-01-26T18:20:29.879Z,90.20
2019-01-26T18:22:59.771Z,90.20
2019-01-26T18:25:39.074Z,90.30
2019-01-26T18:28:07.936Z,90.40
2019-01-26T18:30:39.191Z,90.50
2019-01-26T18:33:07.629Z,90.50
2019-01-26T18:35:36.330Z,90.60
2019-01-26T18:38:05.495Z,90.60
2019-01-26T18:40:34.116Z,90.70
2019-01-26T18:43:02.611Z,90.70
2019-01-26T18:45:32.637Z,90.70
2019-01-26T18:48:01.111Z,90.70
2019-01-26T18:50:42.069Z,90.80
2019-01-26T18:53:10.576Z,90.80
2019-01-26T18:55:39.017Z,90.80
2019-01-26T18:58:07.498Z,90.80
2019-01-26T19:00:39.046Z,90.80
2019-01-26T19:03:12.279Z,90.80
2019-01-26T19:05:40.790Z,90.80
2019-01-26T19:08:09.890Z,90.80
2019-01-26T19:10:38.419Z,90.90
2019-01-26T19:13:07.083Z,90.90
2019-01-26T19:15:35.652Z,90.90
2019-01-26T19:18:04.590Z,90.80
2019-01-26T19:20:34.549Z,90.80
2019-01-26T19:23:03.090Z,90.80
2019-01-26T19:25:31.543Z,90.80
2019-01-26T19:28:00.066Z,90.80
2019-01-26T19:30:30.101Z,90.70
2019-01-26T19:32:58.555Z,90.70
2019-01-26T19:35:27.038Z,90.70
2019-01-26T19:37:55.724Z,90.70
2019-01-26T19:40:25.015Z,90.70
2019-01-26T19:42:53.595Z,90.70
2019-01-26T19:45:25.338Z,90.70
2019-01-26T19:47:53.778Z,90.70
2019-01-26T19:50:24.314Z,90.70
2019-01-26T19:52:52.911Z,90.70
2019-01-26T19:55:23.464Z,90.70
2019-01-26T19:57:52.648Z,90.70
2019-01-26T20:00:22.848Z,90.70
2019-01-26T20:02:51.338Z,90.70
2019-01-26T20:05:23.973Z,90.70
2019-01-26T20:07:52.867Z,90.70
2019-01-26T20:10:21.934Z,90.70
2019-01-26T20:12:50.502Z,90.80
2019-01-26T20:15:22.076Z,90.80
2019-01-26T20:17:50.734Z,90.80
2019-01-26T20:20:22.389Z,90.80
2019-01-26T20:22:50.871Z,90.80
2019-01-26T20:25:19.469Z,90.80
2019-01-26T20:27:48.047Z,90.80
2019-01-26T20:30:19.515Z,90.80
2019-01-26T20:32:49.650Z,90.80
2019-01-26T20:35:18.105Z,90.80
2019-01-26T20:37:46.631Z,90.80
2019-01-26T20:40:17.945Z,90.80
2019-01-26T20:42:46.516Z,90.80
2019-01-26T20:45:20.504Z,90.80
2019-01-26T20:47:49.098Z,90.80
2019-01-26T20:50:17.705Z,90.80
2019-01-26T20:52:46.199Z,90.80
2019-01-26T20:55:14.805Z,90.80
2019-01-26T20:57:43.462Z,90.80
2019-01-26T21:00:26.260Z,90.70
2019-01-26T21:02:54.819Z,90.80
2019-01-26T21:05:24.265Z,90.70
2019-01-26T21:07:52.771Z,90.70
2019-01-26T21:10:29.246Z,90.70
2019-01-26T21:12:58.440Z,90.70
2019-01-26T21:15:27.079Z,90.80
2019-01-26T21:17:55.668Z,90.80
2019-01-26T21:20:25.983Z,90.80
2019-01-26T21:22:54.531Z,90.80
2019-01-26T21:25:23.362Z,90.80
2019-01-26T21:27:52.131Z,90.90
2019-01-26T21:30:22.999Z,90.80
2019-01-26T21:32:51.460Z,90.90
2019-01-26T21:35:20.290Z,90.90
2019-01-26T21:37:50.351Z,90.90
2019-01-26T21:40:21.698Z,90.90
2019-01-26T21:42:50.231Z,90.90
2019-01-26T21:45:19.008Z,90.90
2019-01-26T21:47:47.511Z,90.80
2019-01-26T21:50:21.278Z,90.70
2019-01-26T21:52:50.018Z,90.70
2019-01-26T21:55:19.174Z,90.70
2019-01-26T21:57:47.618Z,90.70
2019-01-26T22:00:18.846Z,90.70
2019-01-26T22:02:47.299Z,90.70
2019-01-26T22:05:15.799Z,90.70
2019-01-26T22:07:44.246Z,90.60
2019-01-26T22:10:15.321Z,90.60
2019-01-26T22:12:43.850Z,90.50
2019-01-26T22:15:15.279Z,90.50
2019-01-26T22:17:43.766Z,90.50
2019-01-26T22:20:15.078Z,90.50
2019-01-26T22:22:43.554Z,90.50
2019-01-26T22:25:13.851Z,90.50
2019-01-26T22:27:42.418Z,90.40
2019-01-26T22:30:24.958Z,90.30
2019-01-26T22:32:55.006Z,90.30
2019-01-26T22:35:23.594Z,90.30
2019-01-26T22:37:52.022Z,90.20
2019-01-26T22:40:32.002Z,90.10
2019-01-26T22:43:00.763Z,90.00
2019-01-26T22:45:29.579Z,90.10
2019-01-26T22:47:58.059Z,90.10
2019-01-26T22:50:28.772Z,90.10
2019-01-26T22:52:57.439Z,90.20
2019-01-26T22:55:26.662Z,90.20
2019-01-26T22:57:55.223Z,90.10
2019-01-26T23:00:55.506Z,90.20
2019-01-26T23:03:38.845Z,90.00
2019-01-26T23:06:32.959Z,90.00
2019-01-26T23:09:06.096Z,90.10
2019-01-26T23:11:46.626Z,90.10
2019-01-26T23:14:30.992Z,90.00
2019-01-26T23:17:17.579Z,90.00
2019-01-26T23:19:52.173Z,90.00
2019-01-26T23:22:49.392Z,90.10
2019-01-26T23:25:32.698Z,90.10
2019-01-26T23:28:12.930Z,90.10
2019-01-26T23:31:02.595Z,90.00
2019-01-26T23:33:31.093Z,90.00
2019-01-26T23:35:59.631Z,90.10
2019-01-26T23:38:28.225Z,90.00
2019-01-26T23:40:56.652Z,90.00
2019-01-26T23:43:25.177Z,89.80
2019-01-26T23:45:53.662Z,89.60
2019-01-26T23:48:23.650Z,89.50
2019-01-26T23:50:52.079Z,89.70
2019-01-26T23:53:20.533Z,89.60
2019-01-26T23:55:48.959Z,89.30
2019-01-26T23:58:17.532Z,88.90
